Terminal Aerodrome Forecast
Issued by NWS

Home | Current Version | Previous Version | Text Only | Print | Product List | Glossary On
Versions: 1 2 3 4 5 6 7 8 9 10 11 12 13 14 15 16
000
FTUS45 KTFX 041134
TAFHVR
TAF
KHVR 041134Z 0412/0512 24007KT P6SM SKC
     FM041500 35011KT P6SM SCT080 SCT150
     FM042100 01012KT P6SM VCTS SCT060CB BKN120 PROB30 0423/0503
      VRB25G40KT -TSRA BKN060CB
     FM050300 03015KT P6SM -SHRA SCT035 BKN060=

USA.gov is the U.S. government's official web portal to all federal, state and local government web resources and services.